createdAt,value
2023-05-20T05:39:03.370Z,9.30
2023-05-20T05:41:32.088Z,9.80
2023-05-20T05:44:00.553Z,10.10
2023-05-20T05:46:29.263Z,10.40
2023-05-20T05:48:58.922Z,10.70
2023-05-20T05:51:28.567Z,11.00
2023-05-20T05:53:58.118Z,11.30
2023-05-20T05:56:25.934Z,11.60
2023-05-20T05:58:53.948Z,11.80
2023-05-20T06:01:21.898Z,12.00
2023-05-20T06:03:49.961Z,12.10
2023-05-20T06:06:17.701Z,12.30
2023-05-20T06:08:45.309Z,12.40
2023-05-20T06:11:13.650Z,12.60
2023-05-20T06:13:42.740Z,12.70
2023-05-20T06:16:10.637Z,12.80
2023-05-20T06:18:38.304Z,13.10
2023-05-20T06:21:06.819Z,13.30
2023-05-20T06:23:34.517Z,13.40
2023-05-20T06:26:05.239Z,13.40
2023-05-20T06:28:33.247Z,13.40
2023-05-20T06:31:01.125Z,13.40
2023-05-20T06:33:32.791Z,13.40
2023-05-20T06:36:05.755Z,13.40
2023-05-20T06:38:33.671Z,13.50
2023-05-20T06:41:02.151Z,13.60
2023-05-20T06:43:31.207Z,13.60
2023-05-20T06:46:06.582Z,13.70
2023-05-20T06:48:40.009Z,13.80
2023-05-20T06:51:12.207Z,13.70
2023-05-20T06:53:40.976Z,13.80
2023-05-20T06:56:08.723Z,13.80
2023-05-20T06:58:36.428Z,14.00
2023-05-20T07:01:04.197Z,14.10
2023-05-20T07:03:32.105Z,14.10
2023-05-20T07:05:59.923Z,14.10
2023-05-20T07:08:27.728Z,14.20
2023-05-20T07:10:57.204Z,14.30
2023-05-20T07:13:26.213Z,14.30
2023-05-20T07:15:54.059Z,14.30
2023-05-20T07:18:22.077Z,14.40
2023-05-20T07:20:53.761Z,14.50
2023-05-20T07:23:39.749Z,14.60
2023-05-20T07:26:07.567Z,14.70
2023-05-20T07:28:36.754Z,14.80
2023-05-20T07:31:04.823Z,14.80
2023-05-20T07:33:35.173Z,15.10
2023-05-20T07:36:02.897Z,15.30
2023-05-20T07:38:30.686Z,15.50
2023-05-20T07:41:01.961Z,15.80
2023-05-20T07:43:29.642Z,16.10
2023-05-20T07:45:58.466Z,16.10
2023-05-20T07:48:26.224Z,16.00
2023-05-20T07:50:54.106Z,15.80
2023-05-20T07:55:59.521Z,15.50
2023-05-20T07:58:29.871Z,15.50
2023-05-20T08:00:57.868Z,15.60
2023-05-20T08:03:27.265Z,15.70
2023-05-20T08:06:01.430Z,15.70
2023-05-20T08:08:30.722Z,15.80
2023-05-20T08:11:04.425Z,15.60
2023-05-20T08:13:33.279Z,15.40
2023-05-20T08:16:04.192Z,15.30
2023-05-20T08:18:33.548Z,15.20
2023-05-20T08:21:01.216Z,15.20
2023-05-20T08:23:28.955Z,15.10
2023-05-20T08:25:57.635Z,15.20
2023-05-20T08:28:26.337Z,15.20
2023-05-20T08:30:54.886Z,15.30
2023-05-20T08:33:22.649Z,15.50
2023-05-20T08:35:50.661Z,15.80
2023-05-20T08:38:18.750Z,15.90
2023-05-20T08:40:51.841Z,16.10
2023-05-20T08:43:20.088Z,16.30
2023-05-20T08:45:49.004Z,16.30
2023-05-20T08:48:18.487Z,16.30
2023-05-20T08:50:50.673Z,16.30
2023-05-20T08:53:19.369Z,16.30
2023-05-20T08:55:52.801Z,16.30
2023-05-20T08:58:22.149Z,16.40
2023-05-20T09:00:51.280Z,16.60
2023-05-20T09:03:20.420Z,16.80
2023-05-20T09:05:48.548Z,17.00
2023-05-20T09:08:16.256Z,17.00
2023-05-20T09:10:43.941Z,16.90
2023-05-20T09:13:11.988Z,16.90
2023-05-20T09:15:40.500Z,16.90
2023-05-20T09:18:09.146Z,16.90
2023-05-20T09:20:37.791Z,16.80
2023-05-20T09:23:07.968Z,16.80
2023-05-20T09:25:37.269Z,16.90
2023-05-20T09:28:09.343Z,17.00
2023-05-20T09:30:37.032Z,17.00
2023-05-20T09:33:06.015Z,17.10
2023-05-20T09:35:37.852Z,17.10
2023-05-20T09:38:08.111Z,17.00
2023-05-20T09:40:40.454Z,17.00
2023-05-20T09:43:08.801Z,17.10
2023-05-20T09:45:38.443Z,17.10
2023-05-20T09:48:09.274Z,17.10
2023-05-20T09:50:37.363Z,17.00
2023-05-20T09:53:05.263Z,17.00
2023-05-20T09:55:33.742Z,17.10
2023-05-20T09:58:02.421Z,17.10
2023-05-20T10:00:30.416Z,16.80
2023-05-20T10:02:59.326Z,16.70
2023-05-20T10:05:35.994Z,16.80
2023-05-20T10:08:25.942Z,16.90
2023-05-20T10:11:17.629Z,17.20
2023-05-20T10:13:58.838Z,17.40
2023-05-20T10:16:52.668Z,17.50
2023-05-20T10:19:33.159Z,17.60
2023-05-20T10:22:02.867Z,17.60
2023-05-20T10:24:35.206Z,17.60
2023-05-20T10:27:04.924Z,17.70
2023-05-20T10:29:56.494Z,17.80
2023-05-20T10:32:25.986Z,17.80
2023-05-20T10:34:58.226Z,17.70
2023-05-20T10:37:29.677Z,17.70
2023-05-20T10:40:11.690Z,17.70
2023-05-20T10:42:39.897Z,17.80
2023-05-20T10:45:08.931Z,17.70
2023-05-20T10:47:37.405Z,17.70
2023-05-20T10:50:06.224Z,17.60
2023-05-20T10:52:38.400Z,17.60
2023-05-20T10:55:06.599Z,17.70
2023-05-20T10:57:35.014Z,17.90
2023-05-20T11:00:05.117Z,18.00
2023-05-20T11:02:34.331Z,18.00
2023-05-20T11:05:04.197Z,17.90
2023-05-20T11:07:32.675Z,17.90
2023-05-20T11:10:00.370Z,17.90
2023-05-20T11:12:28.496Z,18.00
2023-05-20T11:14:56.317Z,18.10
2023-05-20T11:17:23.992Z,18.10
2023-05-20T11:19:51.782Z,18.10
2023-05-20T11:22:21.991Z,18.10
2023-05-20T11:24:49.758Z,18.10
2023-05-20T11:27:17.505Z,18.20
2023-05-20T11:29:45.440Z,18.20
2023-05-20T11:32:13.449Z,18.30
2023-05-20T11:34:42.737Z,18.30
2023-05-20T11:37:11.739Z,18.40
2023-05-20T11:39:39.520Z,18.40
2023-05-20T11:42:07.200Z,18.30
2023-05-20T11:44:35.093Z,18.30
2023-05-20T11:47:05.472Z,18.40
2023-05-20T11:49:40.293Z,18.60
2023-05-20T11:52:11.347Z,18.70
2023-05-20T11:54:39.013Z,18.70
2023-05-20T11:57:07.298Z,18.80
2023-05-20T11:59:35.251Z,18.80
2023-05-20T12:02:03.150Z,18.90
2023-05-20T12:04:30.823Z,19.20
2023-05-20T12:06:58.432Z,19.40
2023-05-20T12:09:26.122Z,19.60
2023-05-20T12:11:56.079Z,19.80
2023-05-20T12:14:23.710Z,19.60
2023-05-20T12:16:52.834Z,19.30
2023-05-20T12:19:20.563Z,19.20
2023-05-20T12:21:48.236Z,19.20
2023-05-20T12:24:16.034Z,19.30
2023-05-20T12:26:43.739Z,19.50
2023-05-20T12:29:11.376Z,19.70
2023-05-20T12:31:39.165Z,19.60
2023-05-20T12:34:06.969Z,19.50
2023-05-20T12:36:34.750Z,19.40
2023-05-20T12:39:02.318Z,19.20
2023-05-20T12:41:29.967Z,19.10
2023-05-20T12:43:57.594Z,19.10
2023-05-20T12:46:25.376Z,19.10
2023-05-20T12:48:53.298Z,19.20
2023-05-20T12:51:21.239Z,19.30
2023-05-20T12:53:48.996Z,19.50
2023-05-20T12:56:16.857Z,19.80
2023-05-20T12:58:44.513Z,20.00
2023-05-20T13:01:12.149Z,20.30
2023-05-20T13:03:39.793Z,20.50
2023-05-20T13:06:07.566Z,20.40
2023-05-20T13:08:35.176Z,20.30
2023-05-20T13:11:02.835Z,19.90
2023-05-20T13:13:30.733Z,19.60
2023-05-20T13:15:58.877Z,19.50
2023-05-20T13:18:26.521Z,19.40
2023-05-20T13:20:54.196Z,19.40
2023-05-20T13:23:21.813Z,19.50
2023-05-20T13:25:49.477Z,19.50
2023-05-20T13:28:19.065Z,19.70
2023-05-20T13:30:47.144Z,20.10
2023-05-20T13:33:14.828Z,20.30
2023-05-20T13:35:42.470Z,20.50
2023-05-20T13:38:10.477Z,20.30
2023-05-20T13:40:38.125Z,20.20
2023-05-20T13:43:06.204Z,20.10
2023-05-20T13:45:33.879Z,20.20
2023-05-20T13:48:01.573Z,20.30
2023-05-20T13:50:29.240Z,20.40
2023-05-20T13:52:56.909Z,20.30
2023-05-20T13:55:25.077Z,20.20
2023-05-20T13:57:54.388Z,20.10
2023-05-20T14:00:22.514Z,19.90
2023-05-20T14:02:50.589Z,20.00
2023-05-20T14:05:19.078Z,20.00
2023-05-20T14:07:46.989Z,20.10
2023-05-20T14:10:14.900Z,20.20
2023-05-20T14:12:47.943Z,20.20
2023-05-20T14:15:15.699Z,20.10
2023-05-20T14:17:43.457Z,20.10
2023-05-20T14:20:11.715Z,20.20
2023-05-20T14:22:39.604Z,20.30
2023-05-20T14:25:07.758Z,20.40
2023-05-20T14:27:35.490Z,20.40
2023-05-20T14:30:03.816Z,20.40
2023-05-20T14:32:31.703Z,20.30
2023-05-20T14:35:00.237Z,20.30
2023-05-20T14:37:28.247Z,20.30
2023-05-20T14:39:56.252Z,20.50
2023-05-20T14:42:24.109Z,20.60
2023-05-20T14:44:55.546Z,20.80
2023-05-20T14:47:23.873Z,21.00
2023-05-20T14:49:51.592Z,21.00
2023-05-20T14:52:19.571Z,20.80
2023-05-20T14:54:47.447Z,20.20
2023-05-20T14:57:18.116Z,19.70
2023-05-20T14:59:45.979Z,19.60
2023-05-20T15:02:15.547Z,19.80
2023-05-20T15:04:46.519Z,20.00
2023-05-20T15:07:17.663Z,20.30
2023-05-20T15:09:45.491Z,20.40
2023-05-20T15:12:13.226Z,20.30
2023-05-20T15:14:40.869Z,19.90
2023-05-20T15:17:09.081Z,19.40
2023-05-20T15:19:38.981Z,19.30
2023-05-20T15:22:09.125Z,19.30
2023-05-20T15:24:36.876Z,19.40
2023-05-20T15:27:04.865Z,19.60
2023-05-20T15:29:32.643Z,20.00
2023-05-20T15:32:00.557Z,20.10
2023-05-20T15:34:28.173Z,20.30
2023-05-20T15:36:56.041Z,20.30
2023-05-20T15:39:23.749Z,20.30
2023-05-20T15:41:52.395Z,20.00
2023-05-20T15:44:20.067Z,19.80
2023-05-20T15:46:47.689Z,19.90
2023-05-20T15:49:15.359Z,20.20
2023-05-20T15:51:52.175Z,20.30
2023-05-20T15:54:30.001Z,20.30
2023-05-20T15:56:58.130Z,20.00
2023-05-20T15:59:25.911Z,19.90
2023-05-20T16:01:53.616Z,20.00
2023-05-20T16:04:21.807Z,20.20
2023-05-20T16:06:49.625Z,20.30
2023-05-20T16:09:18.439Z,20.50
2023-05-20T16:11:46.857Z,20.40
2023-05-20T16:14:14.510Z,20.10
2023-05-20T16:16:42.197Z,19.60
2023-05-20T16:19:09.993Z,19.40
2023-05-20T16:21:37.763Z,19.50
2023-05-20T16:24:05.621Z,19.60
2023-05-20T16:26:33.300Z,19.60
2023-05-20T16:29:01.334Z,19.50
2023-05-20T16:31:28.970Z,19.60
2023-05-20T16:33:57.514Z,19.70
2023-05-20T16:36:25.898Z,19.90
2023-05-20T16:38:53.695Z,20.10
2023-05-20T16:41:21.551Z,20.30
2023-05-20T16:43:49.141Z,20.30
2023-05-20T16:46:16.948Z,20.50
2023-05-20T16:48:44.680Z,20.40
2023-05-20T16:51:12.258Z,20.30
2023-05-20T16:53:41.092Z,20.20
2023-05-20T16:56:09.052Z,20.10
2023-05-20T16:58:36.680Z,20.20
2023-05-20T17:01:04.308Z,20.40
2023-05-20T17:03:32.198Z,20.80
2023-05-20T17:05:59.944Z,20.90
2023-05-20T17:08:27.607Z,21.00
2023-05-20T17:10:55.821Z,20.80
2023-05-20T17:13:23.441Z,20.60
2023-05-20T17:15:51.245Z,20.30
2023-05-20T17:18:18.933Z,20.10
2023-05-20T17:20:46.655Z,20.10
2023-05-20T17:23:14.941Z,20.10
2023-05-20T17:25:42.796Z,20.30
2023-05-20T17:28:10.905Z,20.40
2023-05-20T17:30:39.945Z,20.50
2023-05-20T17:33:07.852Z,20.60
2023-05-20T17:35:36.642Z,20.80
2023-05-20T17:38:04.441Z,20.80
2023-05-20T17:40:32.272Z,20.60
2023-05-20T17:42:59.965Z,20.70
2023-05-20T17:45:27.611Z,20.80
2023-05-20T17:47:55.553Z,21.00
2023-05-20T17:50:23.414Z,21.10
2023-05-20T17:52:51.108Z,21.10
2023-05-20T17:55:19.165Z,21.20
2023-05-20T17:57:46.888Z,21.00
2023-05-20T18:00:15.727Z,20.80
2023-05-20T18:02:48.145Z,20.60
2023-05-20T18:05:18.857Z,20.60
2023-05-20T18:07:46.830Z,20.60
2023-05-20T18:10:32.682Z,20.60
2023-05-20T18:13:05.454Z,20.70
2023-05-20T18:16:16.340Z,20.70
2023-05-20T18:18:44.020Z,20.80
2023-05-20T18:21:23.509Z,20.70
2023-05-20T18:23:51.537Z,20.60
2023-05-20T18:26:36.516Z,20.50
2023-05-20T18:32:36.568Z,20.30
2023-05-20T18:35:33.386Z,20.10
2023-05-20T18:38:02.806Z,19.70
2023-05-20T18:40:30.700Z,19.40
2023-05-20T18:42:59.072Z,19.10
2023-05-20T18:45:29.888Z,18.80
2023-05-20T18:47:59.867Z,18.70
2023-05-20T18:50:30.981Z,18.50
2023-05-20T18:52:58.984Z,18.40
2023-05-20T18:56:03.037Z,18.20
2023-05-20T18:58:30.832Z,17.90
2023-05-20T19:00:58.677Z,17.70
2023-05-20T19:03:26.530Z,17.50
2023-05-20T19:05:54.683Z,17.30
2023-05-20T19:08:23.261Z,17.30
2023-05-20T19:10:51.895Z,17.30
2023-05-20T19:13:19.756Z,17.20
2023-05-20T19:15:49.712Z,17.10
2023-05-20T19:18:17.557Z,16.90
2023-05-20T19:20:45.237Z,16.80
2023-05-20T19:23:12.915Z,16.60
2023-05-20T19:25:40.610Z,16.50
2023-05-20T19:28:08.234Z,16.50
2023-05-20T19:30:36.118Z,16.30
2023-05-20T19:33:05.203Z,16.10
2023-05-20T19:35:33.751Z,15.90
2023-05-20T19:38:01.586Z,15.80
2023-05-20T19:40:29.174Z,15.70
2023-05-20T19:42:56.821Z,15.50
2023-05-20T19:45:24.521Z,15.40
2023-05-20T19:47:52.366Z,15.30
2023-05-20T19:50:20.120Z,15.10
2023-05-20T19:52:47.826Z,15.00
2023-05-20T19:55:15.735Z,14.80
2023-05-20T19:57:46.493Z,14.60
2023-05-20T20:00:14.400Z,14.50
2023-05-20T20:02:41.965Z,14.40
2023-05-20T20:05:10.073Z,14.30
2023-05-20T20:07:37.804Z,14.10
2023-05-20T20:10:05.919Z,14.00
2023-05-20T20:12:33.470Z,13.90
2023-05-20T20:15:01.248Z,13.80
2023-05-20T20:17:30.308Z,13.70
2023-05-20T20:19:58.125Z,13.60
2023-05-20T20:22:25.850Z,13.50
2023-05-20T20:24:58.379Z,13.40
2023-05-20T20:27:29.328Z,13.40
2023-05-20T20:29:57.142Z,13.30
2023-05-20T20:32:25.131Z,13.30
2023-05-20T20:34:53.789Z,13.20
2023-05-20T20:37:23.048Z,13.10
2023-05-20T20:39:50.658Z,13.10
2023-05-20T20:42:18.664Z,13.00
2023-05-20T20:44:48.388Z,13.00
2023-05-20T20:47:16.460Z,12.90
2023-05-20T20:49:44.087Z,12.80
2023-05-20T20:52:12.459Z,12.80
2023-05-20T20:54:42.192Z,12.80
2023-05-20T20:57:11.611Z,12.60
2023-05-20T20:59:39.875Z,12.50
2023-05-20T21:02:07.466Z,12.40
2023-05-20T21:04:35.174Z,12.30
2023-05-20T21:07:02.937Z,12.30
2023-05-20T21:09:30.463Z,12.20
2023-05-20T21:12:00.400Z,12.10
2023-05-20T21:14:28.114Z,12.00
2023-05-20T21:16:55.806Z,11.90
2023-05-20T21:19:23.510Z,11.80
2023-05-20T21:21:51.124Z,11.80
2023-05-20T21:24:19.817Z,11.70
2023-05-20T21:26:47.428Z,11.70
2023-05-20T21:29:15.345Z,11.60
2023-05-20T21:31:43.010Z,11.50
2023-05-20T21:34:10.773Z,11.40
2023-05-20T21:36:38.507Z,11.30
2023-05-20T21:39:06.482Z,11.30
2023-05-20T21:45:08.016Z,11.00
2023-05-20T21:47:36.061Z,10.80
2023-05-20T22:05:00.604Z,10.00
2023-05-20T22:07:51.321Z,9.80
2023-05-20T22:11:07.761Z,9.70
2023-05-20T22:13:36.349Z,9.60
2023-05-20T22:16:05.081Z,9.50
2023-05-20T22:18:33.722Z,9.40
2023-05-20T22:21:01.597Z,9.40
2023-05-20T22:23:29.654Z,9.30
2023-05-20T22:25:58.390Z,9.30
2023-05-20T22:28:26.689Z,9.20
2023-05-20T22:30:54.910Z,9.20
2023-05-20T22:33:24.441Z,9.10
2023-05-20T22:35:54.028Z,9.00
2023-05-20T22:38:22.206Z,9.00
2023-05-20T22:40:50.473Z,8.90
2023-05-20T22:43:18.446Z,8.80
2023-05-20T22:45:46.598Z,8.80
2023-05-20T22:48:15.402Z,8.70
2023-05-20T22:50:43.465Z,8.60
2023-05-20T22:53:11.857Z,8.60
2023-05-20T22:55:41.219Z,8.50
2023-05-20T22:58:09.371Z,8.50
2023-05-20T23:00:52.865Z,8.40
2023-05-20T23:03:36.234Z,8.30
2023-05-20T23:06:04.541Z,8.30
2023-05-20T23:08:32.750Z,8.10
2023-05-20T23:11:00.885Z,8.10
2023-05-20T23:13:29.162Z,7.90
2023-05-20T23:15:57.877Z,7.90
2023-05-20T23:18:25.957Z,7.90
2023-05-20T23:20:54.219Z,7.90
2023-05-20T23:23:30.631Z,7.80
2023-05-20T23:25:59.922Z,7.80
2023-05-20T23:28:28.355Z,7.80
2023-05-20T23:30:56.745Z,7.70
2023-05-20T23:33:26.215Z,7.60
2023-05-20T23:35:56.985Z,7.60
2023-05-20T23:38:25.256Z,7.50
2023-05-20T23:40:53.421Z,7.40
2023-05-20T23:43:21.603Z,7.40
2023-05-20T23:45:49.784Z,7.30
2023-05-20T23:48:20.012Z,7.30
2023-05-20T23:50:50.286Z,7.30
2023-05-20T23:53:18.410Z,7.20
2023-05-20T23:55:49.673Z,7.20
2023-05-20T23:58:17.972Z,7.10
